createdAt,value
2018-07-25T00:00:59.866Z,19.57
2018-07-25T00:03:28.777Z,19.54
2018-07-25T00:05:57.426Z,19.47
2018-07-25T00:08:26.131Z,19.51
2018-07-25T00:10:55.606Z,19.46
2018-07-25T00:13:25.948Z,19.47
2018-07-25T00:15:54.746Z,19.50
2018-07-25T00:18:23.426Z,19.50
2018-07-25T00:20:52.203Z,19.52
2018-07-25T00:23:20.848Z,19.55
2018-07-25T00:25:49.571Z,19.50
2018-07-25T00:28:18.275Z,19.48
2018-07-25T00:30:46.982Z,19.51
2018-07-25T00:33:15.664Z,19.50
2018-07-25T00:35:44.373Z,19.52
2018-07-25T00:38:12.987Z,19.49
2018-07-25T00:40:41.716Z,19.51
2018-07-25T00:43:10.458Z,19.43
2018-07-25T00:45:39.315Z,19.45
2018-07-25T00:48:08.598Z,19.45
2018-07-25T00:50:37.319Z,19.43
2018-07-25T00:53:05.997Z,19.36
2018-07-25T00:55:34.628Z,19.36
2018-07-25T00:58:03.401Z,19.33
2018-07-25T01:00:32.130Z,19.31
2018-07-25T01:03:00.961Z,19.31
2018-07-25T01:05:29.703Z,19.24
2018-07-25T01:07:58.323Z,19.26
2018-07-25T01:10:27.296Z,19.22
2018-07-25T01:12:56.005Z,19.23
2018-07-25T01:15:24.656Z,19.19
2018-07-25T01:17:53.427Z,19.19
2018-07-25T01:20:22.252Z,19.17
2018-07-25T01:22:50.943Z,19.15
2018-07-25T01:25:19.652Z,19.18
2018-07-25T01:27:48.355Z,19.18
2018-07-25T01:30:17.055Z,19.18
2018-07-25T01:32:45.791Z,19.18
2018-07-25T01:35:14.428Z,19.17
2018-07-25T01:37:43.068Z,19.20
2018-07-25T01:40:11.712Z,19.19
2018-07-25T01:42:40.439Z,19.16
2018-07-25T01:45:09.196Z,19.15
2018-07-25T01:47:38.028Z,19.13
2018-07-25T01:50:06.998Z,19.10
2018-07-25T01:52:35.733Z,19.08
2018-07-25T01:55:04.965Z,19.08
2018-07-25T01:57:33.689Z,19.07
2018-07-25T02:00:02.381Z,19.09
2018-07-25T02:02:31.037Z,19.04
2018-07-25T02:04:59.725Z,19.07
2018-07-25T02:07:28.366Z,19.10
2018-07-25T02:09:57.024Z,19.11
2018-07-25T02:12:25.705Z,19.09
2018-07-25T02:14:54.361Z,19.10
2018-07-25T02:17:23.090Z,19.15
2018-07-25T02:19:51.714Z,19.15
2018-07-25T02:22:20.423Z,19.12
2018-07-25T02:24:49.526Z,19.11
2018-07-25T02:27:18.168Z,19.09
2018-07-25T02:29:46.952Z,19.08
2018-07-25T02:32:15.627Z,19.01
2018-07-25T02:34:44.232Z,19.09
2018-07-25T02:37:12.903Z,19.10
2018-07-25T02:39:42.136Z,19.10
2018-07-25T02:42:10.887Z,19.13
2018-07-25T02:44:39.633Z,19.18
2018-07-25T02:47:08.401Z,19.26
2018-07-25T02:49:37.166Z,19.31
2018-07-25T02:52:05.892Z,19.33
2018-07-25T02:54:34.534Z,19.40
2018-07-25T02:57:03.415Z,19.45
2018-07-25T02:59:32.022Z,19.43
2018-07-25T03:02:00.693Z,19.43
2018-07-25T03:04:29.374Z,19.50
2018-07-25T03:06:58.109Z,19.49
2018-07-25T03:09:26.845Z,19.47
2018-07-25T03:11:55.550Z,19.51
2018-07-25T03:14:24.272Z,19.56
2018-07-25T03:16:52.927Z,19.55
2018-07-25T03:19:21.631Z,19.55
2018-07-25T03:21:50.301Z,19.63
2018-07-25T03:24:18.993Z,19.66
2018-07-25T03:26:47.817Z,19.71
2018-07-25T03:29:16.577Z,19.71
2018-07-25T03:31:45.203Z,19.76
2018-07-25T03:34:13.914Z,19.81
2018-07-25T03:36:42.707Z,19.83
2018-07-25T03:39:11.338Z,19.74
2018-07-25T03:41:40.223Z,19.72
2018-07-25T03:44:08.844Z,19.80
2018-07-25T03:46:37.652Z,19.84
2018-07-25T03:49:06.330Z,19.86
2018-07-25T03:51:34.992Z,19.88
2018-07-25T03:54:03.761Z,19.86
2018-07-25T03:56:32.435Z,19.85
2018-07-25T03:59:01.040Z,19.87
2018-07-25T04:01:29.724Z,19.94
2018-07-25T04:03:58.473Z,20.01
2018-07-25T04:06:27.139Z,20.04
2018-07-25T04:08:55.803Z,20.12
2018-07-25T04:11:24.558Z,20.16
2018-07-25T04:13:53.230Z,20.18
2018-07-25T04:16:21.970Z,20.25
2018-07-25T04:18:51.100Z,20.31
2018-07-25T04:21:19.719Z,20.37
2018-07-25T04:23:48.364Z,20.39
2018-07-25T04:26:17.051Z,20.50
2018-07-25T04:28:45.701Z,20.59
2018-07-25T04:31:14.335Z,20.66
2018-07-25T04:33:43.261Z,20.57
2018-07-25T04:36:11.901Z,20.52
2018-07-25T04:38:40.548Z,20.64
2018-07-25T04:41:09.320Z,20.81
2018-07-25T04:43:37.958Z,20.97
2018-07-25T04:46:06.750Z,21.05
2018-07-25T04:48:35.490Z,21.18
2018-07-25T04:51:04.159Z,21.37
2018-07-25T04:53:32.912Z,21.45
2018-07-25T04:56:01.659Z,21.59
2018-07-25T04:58:30.655Z,22.29
2018-07-25T05:00:59.964Z,24.84
2018-07-25T05:03:28.668Z,26.53
2018-07-25T05:05:57.368Z,26.98
2018-07-25T05:08:26.119Z,26.11
2018-07-25T05:10:54.746Z,24.91
2018-07-25T05:13:23.587Z,24.27
2018-07-25T05:15:52.287Z,23.97
2018-07-25T05:18:20.906Z,23.72
2018-07-25T05:20:49.907Z,23.70
2018-07-25T05:23:18.629Z,23.61
2018-07-25T05:25:47.281Z,23.62
2018-07-25T05:28:16.051Z,23.69
2018-07-25T05:30:44.728Z,23.62
2018-07-25T05:33:13.464Z,23.47
2018-07-25T05:35:42.297Z,23.45
2018-07-25T05:38:11.013Z,23.40
2018-07-25T05:40:39.655Z,23.48
2018-07-25T05:43:08.353Z,23.43
2018-07-25T05:45:37.021Z,23.61
2018-07-25T05:48:05.715Z,23.72
2018-07-25T05:50:34.558Z,23.70
2018-07-25T05:53:03.265Z,23.67
2018-07-25T05:55:31.828Z,23.80
2018-07-25T05:58:00.630Z,23.83
2018-07-25T06:00:29.384Z,23.83
2018-07-25T06:02:58.155Z,23.90
2018-07-25T06:05:26.890Z,23.90
2018-07-25T06:07:55.586Z,23.85
2018-07-25T06:10:24.378Z,23.84
2018-07-25T06:12:53.300Z,24.03
2018-07-25T06:15:21.940Z,24.19
2018-07-25T06:17:50.577Z,24.20
2018-07-25T06:20:19.321Z,24.28
2018-07-25T06:22:48.102Z,24.22
2018-07-25T06:25:16.828Z,24.24
2018-07-25T06:27:46.257Z,24.47
2018-07-25T06:30:14.954Z,24.66
2018-07-25T06:32:43.647Z,24.79
2018-07-25T06:35:12.551Z,24.97
2018-07-25T06:37:41.184Z,25.12
2018-07-25T06:40:09.794Z,25.27
2018-07-25T06:42:38.566Z,25.23
2018-07-25T06:45:07.649Z,25.27
2018-07-25T06:47:36.698Z,25.45
2018-07-25T06:50:06.147Z,25.42
2018-07-25T06:52:34.843Z,25.48
2018-07-25T06:55:03.538Z,25.59
2018-07-25T06:57:32.199Z,25.43
2018-07-25T07:00:00.955Z,25.63
2018-07-25T07:02:29.599Z,25.65
2018-07-25T07:04:58.568Z,25.62
2018-07-25T07:07:27.398Z,25.82
2018-07-25T07:09:56.242Z,25.99
2018-07-25T07:12:25.103Z,26.10
2018-07-25T07:14:53.828Z,26.22
2018-07-25T07:17:22.540Z,26.30
2018-07-25T07:19:51.479Z,26.48
2018-07-25T07:22:20.071Z,26.59
2018-07-25T07:24:48.846Z,26.55
2018-07-25T07:27:17.614Z,26.18
2018-07-25T07:29:46.341Z,26.30
2018-07-25T07:32:15.092Z,26.32
2018-07-25T07:34:43.852Z,26.41
2018-07-25T07:37:12.661Z,26.69
2018-07-25T07:39:41.301Z,26.75
2018-07-25T07:42:10.076Z,26.78
2018-07-25T07:44:38.822Z,26.92
2018-07-25T07:47:07.635Z,27.03
2018-07-25T07:49:36.313Z,27.11
2018-07-25T07:52:05.029Z,27.40
2018-07-25T07:54:33.797Z,27.53
2018-07-25T07:57:02.544Z,27.75
2018-07-25T07:59:31.329Z,27.89
2018-07-25T08:02:00.139Z,27.70
2018-07-25T08:04:28.878Z,27.80
2018-07-25T08:06:57.631Z,28.01
2018-07-25T08:10:28.740Z,28.07
2018-07-25T08:12:57.719Z,28.16
2018-07-25T08:15:26.764Z,28.42
2018-07-25T08:17:55.486Z,28.57
2018-07-25T08:20:24.150Z,28.77
2018-07-25T08:22:52.845Z,28.89
2018-07-25T08:25:21.540Z,28.95
2018-07-25T08:27:50.263Z,28.98
2018-07-25T08:30:18.955Z,28.92
2018-07-25T08:32:47.684Z,28.92
2018-07-25T08:35:16.459Z,29.12
2018-07-25T08:37:45.311Z,29.19
2018-07-25T08:40:13.951Z,29.30
2018-07-25T08:42:42.856Z,29.36
2018-07-25T08:45:11.512Z,28.98
2018-07-25T08:47:40.108Z,28.82
2018-07-25T08:50:09.785Z,28.99
2018-07-25T08:52:38.950Z,28.84
2018-07-25T08:55:07.681Z,29.15
2018-07-25T08:57:36.402Z,29.24
2018-07-25T09:00:05.956Z,29.25
2018-07-25T09:02:34.698Z,29.30
2018-07-25T09:05:03.508Z,29.32
2018-07-25T09:07:32.285Z,29.39
2018-07-25T09:10:01.068Z,29.48
2018-07-25T09:12:29.742Z,29.09
2018-07-25T09:14:58.531Z,29.94
2018-07-25T09:17:27.283Z,29.98
2018-07-25T09:19:56.164Z,29.82
2018-07-25T09:22:24.910Z,29.56
2018-07-25T09:24:53.765Z,29.86
2018-07-25T09:27:22.544Z,29.89
2018-07-25T09:29:51.297Z,29.68
2018-07-25T09:32:19.974Z,29.52
2018-07-25T09:34:48.685Z,29.69
2018-07-25T09:37:17.499Z,30.13
2018-07-25T09:39:46.262Z,30.32
2018-07-25T09:42:14.936Z,30.39
2018-07-25T09:44:43.691Z,30.20
2018-07-25T09:47:12.407Z,30.35
2018-07-25T09:49:41.043Z,30.15
2018-07-25T09:52:09.882Z,30.08
2018-07-25T09:54:38.625Z,30.23
2018-07-25T09:57:07.373Z,30.48
2018-07-25T09:59:36.108Z,30.25
2018-07-25T10:02:04.742Z,30.29
2018-07-25T10:04:33.555Z,30.50
2018-07-25T10:07:02.199Z,30.67
2018-07-25T10:09:30.743Z,30.62
2018-07-25T10:11:59.380Z,30.53
2018-07-25T10:14:28.034Z,30.43
2018-07-25T10:16:56.892Z,30.43
2018-07-25T10:19:25.755Z,30.62
2018-07-25T10:21:54.500Z,30.43
2018-07-25T10:24:23.259Z,30.21
2018-07-25T10:26:51.986Z,30.45
2018-07-25T10:29:20.732Z,30.69
2018-07-25T10:31:49.379Z,31.16
2018-07-25T10:34:18.166Z,30.69
2018-07-25T10:36:46.873Z,30.70
2018-07-25T10:39:15.535Z,31.02
2018-07-25T10:41:44.451Z,31.16
2018-07-25T10:44:13.303Z,30.96
2018-07-25T10:46:42.619Z,31.22
2018-07-25T10:49:11.451Z,31.46
2018-07-25T10:51:40.216Z,31.68
2018-07-25T10:54:08.892Z,31.63
2018-07-25T10:56:37.525Z,31.83
2018-07-25T10:59:06.187Z,32.00
2018-07-25T11:01:34.906Z,31.86
2018-07-25T11:04:03.622Z,31.78
2018-07-25T11:06:32.301Z,32.08
2018-07-25T11:09:00.995Z,32.27
2018-07-25T11:11:30.500Z,32.22
2018-07-25T11:14:00.545Z,32.63
2018-07-25T11:16:29.449Z,32.36
2018-07-25T11:18:58.090Z,32.41
2018-07-25T11:21:26.895Z,32.58
2018-07-25T11:23:55.653Z,32.60
2018-07-25T11:26:24.383Z,32.77
2018-07-25T11:28:53.051Z,32.84
2018-07-25T11:31:21.880Z,32.16
2018-07-25T11:33:50.494Z,32.20
2018-07-25T11:36:19.185Z,32.41
2018-07-25T11:38:47.924Z,32.48
2018-07-25T11:41:16.672Z,32.61
2018-07-25T11:43:45.502Z,32.47
2018-07-25T11:46:14.192Z,32.59
2018-07-25T11:48:43.017Z,32.67
2018-07-25T11:51:11.706Z,33.17
2018-07-25T11:53:40.381Z,32.48
2018-07-25T11:56:09.040Z,32.83
2018-07-25T11:58:37.748Z,32.98
2018-07-25T12:01:06.494Z,32.87
2018-07-25T12:03:35.121Z,33.23
2018-07-25T12:06:03.811Z,33.45
2018-07-25T12:08:32.577Z,33.23
2018-07-25T12:11:01.358Z,33.36
2018-07-25T12:13:30.220Z,33.53
2018-07-25T12:15:58.938Z,32.98
2018-07-25T12:18:27.687Z,32.85
2018-07-25T12:20:56.568Z,33.20
2018-07-25T12:23:25.319Z,33.14
2018-07-25T12:25:54.003Z,33.10
2018-07-25T12:28:22.682Z,33.23
2018-07-25T12:30:51.397Z,33.32
2018-07-25T12:33:20.080Z,33.56
2018-07-25T12:35:48.972Z,33.76
2018-07-25T12:38:17.652Z,33.20
2018-07-25T12:40:46.283Z,33.50
2018-07-25T12:43:15.013Z,33.61
2018-07-25T12:45:43.982Z,33.06
2018-07-25T12:48:12.691Z,33.01
2018-07-25T12:50:41.413Z,33.41
2018-07-25T12:53:10.188Z,33.04
2018-07-25T12:55:38.915Z,33.24
2018-07-25T12:58:07.765Z,32.80
2018-07-25T13:00:36.527Z,32.94
2018-07-25T13:03:05.921Z,33.04
2018-07-25T13:05:34.632Z,32.94
2018-07-25T13:08:03.348Z,32.73
2018-07-25T13:10:32.158Z,32.67
2018-07-25T13:13:00.929Z,31.99
2018-07-25T13:15:29.641Z,31.91
2018-07-25T13:17:58.294Z,31.43
2018-07-25T13:20:27.073Z,31.62
2018-07-25T13:22:56.082Z,31.48
2018-07-25T13:25:24.745Z,31.50
2018-07-25T13:27:53.572Z,31.81
2018-07-25T13:30:22.375Z,31.61
2018-07-25T13:32:51.147Z,32.15
2018-07-25T13:35:19.840Z,32.07
2018-07-25T13:37:48.802Z,32.71
2018-07-25T13:40:17.515Z,32.69
2018-07-25T13:42:46.393Z,32.88
2018-07-25T13:45:15.151Z,32.71
2018-07-25T13:47:43.796Z,32.38
2018-07-25T13:50:12.528Z,32.16
2018-07-25T13:52:41.412Z,32.09
2018-07-25T13:55:10.093Z,31.84
2018-07-25T13:57:38.727Z,31.63
2018-07-25T14:00:09.293Z,31.73
2018-07-25T14:02:38.046Z,31.72
2018-07-25T14:05:07.057Z,31.85
2018-07-25T14:07:35.684Z,31.85
2018-07-25T14:10:04.929Z,32.16
2018-07-25T14:12:33.696Z,32.55
2018-07-25T14:15:02.523Z,32.56
2018-07-25T14:17:31.304Z,32.63
2018-07-25T14:20:00.039Z,32.63
2018-07-25T14:22:28.709Z,32.02
2018-07-25T14:24:57.792Z,32.01
2018-07-25T14:27:26.584Z,32.27
2018-07-25T14:29:55.255Z,32.46
2018-07-25T14:32:23.974Z,32.83
2018-07-25T14:34:52.919Z,32.77
2018-07-25T14:37:21.588Z,32.59
2018-07-25T14:39:50.536Z,32.93
2018-07-25T14:42:19.351Z,33.42
2018-07-25T14:44:48.183Z,33.77
2018-07-25T14:47:17.043Z,34.96
2018-07-25T14:49:45.871Z,35.89
2018-07-25T14:52:14.556Z,35.59
2018-07-25T14:54:43.243Z,35.57
2018-07-25T14:57:12.130Z,34.70
2018-07-25T14:59:40.959Z,35.44
2018-07-25T15:02:09.709Z,35.33
2018-07-25T15:04:38.443Z,34.37
2018-07-25T15:07:07.137Z,34.95
2018-07-25T15:09:35.851Z,34.58
2018-07-25T15:12:04.811Z,34.67
2018-07-25T15:14:33.531Z,34.72
2018-07-25T15:17:02.326Z,35.25
2018-07-25T15:19:30.951Z,34.09
2018-07-25T15:21:59.620Z,33.68
2018-07-25T15:24:28.334Z,34.03
2018-07-25T15:26:56.967Z,34.47
2018-07-25T15:29:25.709Z,34.22
2018-07-25T15:31:54.455Z,33.27
2018-07-25T15:34:23.179Z,32.91
2018-07-25T15:36:52.948Z,32.17
2018-07-25T15:39:22.835Z,31.83
2018-07-25T15:41:52.407Z,31.27
2018-07-25T15:44:22.097Z,30.71
2018-07-25T15:46:50.854Z,30.72
2018-07-25T15:49:20.101Z,30.46
2018-07-25T15:51:49.092Z,30.33
2018-07-25T15:54:17.891Z,30.03
2018-07-25T15:56:46.811Z,30.13
2018-07-25T15:59:15.589Z,30.17
2018-07-25T16:01:44.381Z,29.98
2018-07-25T16:04:13.112Z,29.89
2018-07-25T16:06:42.088Z,29.79
2018-07-25T16:09:12.327Z,29.82
2018-07-25T16:11:41.567Z,29.85
2018-07-25T16:14:10.305Z,29.75
2018-07-25T16:16:38.999Z,29.54
2018-07-25T16:19:07.815Z,29.33
2018-07-25T16:21:36.582Z,29.23
2018-07-25T16:24:05.315Z,29.13
2018-07-25T16:26:33.989Z,29.08
2018-07-25T16:29:03.147Z,29.11
2018-07-25T16:31:31.859Z,29.08
2018-07-25T16:34:00.599Z,28.99
2018-07-25T16:36:29.424Z,28.85
2018-07-25T16:38:58.414Z,28.81
2018-07-25T16:41:27.248Z,28.72
2018-07-25T16:43:56.072Z,28.74
2018-07-25T16:46:24.767Z,28.73
2018-07-25T16:48:53.498Z,28.63
2018-07-25T16:51:23.128Z,28.58
2018-07-25T16:53:51.806Z,28.51
2018-07-25T16:56:20.552Z,28.42
2018-07-25T16:58:49.305Z,28.38
2018-07-25T17:01:18.092Z,28.35
2018-07-25T17:03:46.780Z,28.28
2018-07-25T17:06:15.533Z,28.31
2018-07-25T17:08:44.234Z,28.31
2018-07-25T17:11:12.882Z,28.23
2018-07-25T17:13:41.726Z,28.22
2018-07-25T17:16:10.934Z,28.09
2018-07-25T17:18:39.588Z,28.07
2018-07-25T17:21:08.294Z,28.08
2018-07-25T17:23:37.008Z,28.06
2018-07-25T17:26:05.711Z,27.90
2018-07-25T17:28:34.415Z,27.93
2018-07-25T17:31:03.075Z,27.89
2018-07-25T17:33:31.846Z,27.75
2018-07-25T17:36:00.622Z,27.81
2018-07-25T17:38:29.476Z,27.77
2018-07-25T17:40:58.378Z,27.65
2018-07-25T17:43:27.000Z,27.58
2018-07-25T17:45:55.741Z,27.54
2018-07-25T17:48:24.476Z,27.38
2018-07-25T17:50:53.199Z,27.38
2018-07-25T17:53:22.224Z,27.30
2018-07-25T17:55:51.177Z,27.44
2018-07-25T17:58:19.872Z,27.42
2018-07-25T18:00:48.625Z,27.42
2018-07-25T18:03:17.386Z,27.41
2018-07-25T18:05:46.110Z,27.31
2018-07-25T18:08:14.746Z,27.29
2018-07-25T18:10:43.598Z,27.16
2018-07-25T18:14:18.506Z,27.18
2018-07-25T18:16:47.159Z,27.12
2018-07-25T18:19:16.609Z,27.04
2018-07-25T18:21:45.307Z,27.02
2018-07-25T18:24:14.362Z,26.92
2018-07-25T18:26:43.262Z,26.77
2018-07-25T18:29:12.124Z,26.72
2018-07-25T18:31:40.944Z,26.69
2018-07-25T18:34:09.677Z,26.61
2018-07-25T18:36:38.373Z,26.58
2018-07-25T18:39:10.069Z,26.47
2018-07-25T18:41:38.967Z,26.47
2018-07-25T18:44:07.817Z,26.46
2018-07-25T18:46:36.565Z,26.44
2018-07-25T18:49:05.352Z,26.40
2018-07-25T18:51:34.034Z,26.40
2018-07-25T18:54:02.900Z,26.30
2018-07-25T18:56:31.663Z,26.19
2018-07-25T18:59:00.408Z,26.19
2018-07-25T19:01:29.098Z,26.21
2018-07-25T19:03:58.002Z,26.18
2018-07-25T19:06:27.358Z,26.23
2018-07-25T19:08:56.047Z,26.16
2018-07-25T19:11:24.776Z,26.16
2018-07-25T19:13:58.612Z,26.16
2018-07-25T19:16:27.270Z,26.10
2018-07-25T19:18:56.051Z,26.09
2018-07-25T19:21:24.841Z,26.02
2018-07-25T19:23:53.606Z,25.95
2018-07-25T19:26:22.267Z,25.91
2018-07-25T19:28:50.965Z,25.88
2018-07-25T19:31:19.772Z,25.84
2018-07-25T19:33:48.422Z,25.80
2018-07-25T19:36:17.023Z,25.72
2018-07-25T19:38:45.646Z,25.64
2018-07-25T19:41:14.426Z,25.61
2018-07-25T19:43:43.082Z,25.56
2018-07-25T19:46:11.753Z,25.55
2018-07-25T19:48:40.448Z,25.56
2018-07-25T19:51:09.158Z,25.51
2018-07-25T19:53:37.917Z,25.42
2018-07-25T19:56:06.706Z,25.41
2018-07-25T19:58:35.326Z,25.35
2018-07-25T20:01:03.990Z,25.36
2018-07-25T20:03:32.665Z,25.38
2018-07-25T20:06:01.335Z,25.35
2018-07-25T20:08:29.983Z,25.28
2018-07-25T20:10:58.731Z,25.25
2018-07-25T20:13:31.320Z,25.19
2018-07-25T20:16:01.369Z,25.13
2018-07-25T20:18:30.725Z,25.09
2018-07-25T20:20:59.465Z,24.97
2018-07-25T20:23:28.655Z,24.91
2018-07-25T20:25:57.510Z,24.80
2018-07-25T20:28:26.419Z,24.71
2018-07-25T20:30:55.466Z,24.67
2018-07-25T20:33:24.112Z,24.61
2018-07-25T20:35:53.220Z,24.58
2018-07-25T20:38:21.872Z,24.51
2018-07-25T20:40:50.595Z,24.53
2018-07-25T20:43:19.466Z,24.50
2018-07-25T20:45:48.091Z,24.47
2018-07-25T20:48:16.896Z,24.40
2018-07-25T20:50:45.661Z,24.30
2018-07-25T20:53:14.366Z,24.26
2018-07-25T20:55:43.092Z,24.22
2018-07-25T20:58:12.174Z,24.20
2018-07-25T21:00:40.857Z,24.18
2018-07-25T21:03:09.480Z,24.14
2018-07-25T21:05:38.200Z,24.09
2018-07-25T21:08:07.007Z,24.07
2018-07-25T21:10:36.721Z,23.99
2018-07-25T21:13:05.555Z,23.97
2018-07-25T21:15:34.348Z,23.89
2018-07-25T21:18:03.017Z,23.85
2018-07-25T21:20:31.843Z,23.78
2018-07-25T21:23:00.683Z,23.66
2018-07-25T21:25:29.392Z,23.60
2018-07-25T21:27:58.288Z,23.55
2018-07-25T21:30:27.012Z,23.51
2018-07-25T21:32:55.844Z,23.53
2018-07-25T21:35:24.526Z,23.53
2018-07-25T21:37:53.597Z,23.48
2018-07-25T21:40:22.359Z,23.48
2018-07-25T21:42:51.160Z,23.50
2018-07-25T21:45:20.012Z,23.47
2018-07-25T21:47:48.647Z,23.47
2018-07-25T21:50:17.466Z,23.44
2018-07-25T21:52:46.263Z,23.36
2018-07-25T21:55:14.977Z,23.32
2018-07-25T21:57:43.657Z,23.33
2018-07-25T22:00:15.707Z,23.33
2018-07-25T22:02:45.795Z,23.36
2018-07-25T22:05:14.875Z,23.30
2018-07-25T22:07:44.383Z,22.99
2018-07-25T22:10:13.042Z,23.00
2018-07-25T22:12:41.900Z,23.03
2018-07-25T22:15:11.621Z,23.08
2018-07-25T22:17:40.286Z,23.04
2018-07-25T22:20:12.127Z,23.00
2018-07-25T22:22:41.220Z,22.95
2018-07-25T22:25:10.591Z,22.86
2018-07-25T22:27:39.926Z,22.74
2018-07-25T22:30:09.025Z,22.78
2018-07-25T22:32:37.745Z,22.86
2018-07-25T22:35:06.467Z,22.93
2018-07-25T22:37:35.149Z,22.99
2018-07-25T22:40:03.901Z,23.02
2018-07-25T22:42:32.719Z,23.03
2018-07-25T22:45:01.432Z,22.96
2018-07-25T22:47:30.067Z,22.96
2018-07-25T22:49:58.782Z,22.95
2018-07-25T22:52:27.467Z,23.01
2018-07-25T22:54:56.221Z,23.00
2018-07-25T22:57:24.898Z,23.00
2018-07-25T22:59:54.257Z,23.04
2018-07-25T23:02:22.914Z,23.04
2018-07-25T23:04:51.663Z,23.03
2018-07-25T23:07:20.282Z,23.03
2018-07-25T23:09:48.991Z,23.03
2018-07-25T23:12:17.600Z,23.01
2018-07-25T23:14:46.367Z,23.04
2018-07-25T23:17:15.013Z,23.03
2018-07-25T23:19:43.697Z,22.91
2018-07-25T23:22:12.310Z,22.88
2018-07-25T23:24:41.050Z,22.84
2018-07-25T23:27:09.830Z,22.84
2018-07-25T23:29:38.553Z,22.81
2018-07-25T23:32:07.243Z,22.55
2018-07-25T23:34:36.062Z,22.40
2018-07-25T23:37:04.843Z,22.35
2018-07-25T23:39:33.514Z,22.28
2018-07-25T23:42:02.251Z,22.24
2018-07-25T23:44:31.759Z,22.14
2018-07-25T23:47:00.458Z,22.14
2018-07-25T23:49:29.063Z,22.14
2018-07-25T23:51:57.851Z,22.17
2018-07-25T23:54:26.433Z,22.10
2018-07-25T23:56:55.148Z,22.03
2018-07-25T23:59:23.939Z,21.90
